createdAt,value
2018-03-27T00:00:40.466Z,6.60
2018-03-27T00:03:06.907Z,6.60
2018-03-27T00:05:33.333Z,6.60
2018-03-27T00:07:59.726Z,6.60
2018-03-27T00:10:26.124Z,6.50
2018-03-27T00:12:52.504Z,6.40
2018-03-27T00:15:18.967Z,6.40
2018-03-27T00:17:45.359Z,6.40
2018-03-27T00:20:11.756Z,6.30
2018-03-27T00:22:38.165Z,6.30
2018-03-27T00:25:04.687Z,6.30
2018-03-27T00:27:49.383Z,6.40
2018-03-27T00:30:34.218Z,6.40
2018-03-27T00:33:19.058Z,6.40
2018-03-27T00:36:03.778Z,6.30
2018-03-27T00:38:48.463Z,6.30
2018-03-27T00:44:47.628Z,6.20
2018-03-27T00:47:14.088Z,6.10
2018-03-27T00:49:40.572Z,6.10
2018-03-27T00:52:06.968Z,6.00
2018-03-27T00:54:33.433Z,6.00
2018-03-27T00:56:59.808Z,6.10
2018-03-27T00:59:26.211Z,6.10
2018-03-27T01:01:52.660Z,6.10
2018-03-27T01:04:19.106Z,6.10
2018-03-27T01:06:45.555Z,6.00
2018-03-27T01:09:12.001Z,6.10
2018-03-27T01:11:39.194Z,6.10
2018-03-27T01:14:05.618Z,6.10
2018-03-27T01:16:32.023Z,6.10
2018-03-27T01:18:58.474Z,6.10
2018-03-27T01:21:24.904Z,6.10
2018-03-27T01:23:51.325Z,6.10
2018-03-27T01:26:18.491Z,6.10
2018-03-27T01:28:45.730Z,6.00
2018-03-27T01:31:12.161Z,6.00
2018-03-27T01:33:39.270Z,6.10
2018-03-27T01:36:05.711Z,6.10
2018-03-27T01:38:32.875Z,6.10
2018-03-27T01:40:59.998Z,6.10
2018-03-27T01:43:26.448Z,6.10
2018-03-27T01:45:53.619Z,6.10
2018-03-27T01:48:20.043Z,6.00
2018-03-27T01:50:46.444Z,6.00
2018-03-27T01:53:12.869Z,6.10
2018-03-27T01:55:39.347Z,6.00
2018-03-27T01:58:05.772Z,6.00
2018-03-27T02:00:32.165Z,6.00
2018-03-27T02:02:58.558Z,6.00
2018-03-27T02:05:24.927Z,6.00
2018-03-27T02:07:51.334Z,6.00
2018-03-27T02:10:17.710Z,6.00
2018-03-27T02:12:50.803Z,6.00
2018-03-27T02:15:24.027Z,6.10
2018-03-27T02:17:56.438Z,6.10
2018-03-27T02:20:28.950Z,6.10
2018-03-27T02:23:00.311Z,6.10
2018-03-27T02:25:26.714Z,6.10
2018-03-27T02:27:53.851Z,6.10
2018-03-27T02:30:20.243Z,6.00
2018-03-27T02:32:46.662Z,5.80
2018-03-27T02:35:13.164Z,5.80
2018-03-27T02:37:39.571Z,5.90
2018-03-27T02:40:06.058Z,5.90
2018-03-27T02:42:32.472Z,5.90
2018-03-27T02:44:58.858Z,5.80
2018-03-27T02:47:25.233Z,5.90
2018-03-27T02:49:51.641Z,5.80
2018-03-27T02:52:18.779Z,5.80
2018-03-27T02:54:45.209Z,5.80
2018-03-27T02:57:11.645Z,5.80
2018-03-27T02:59:38.188Z,5.70
2018-03-27T03:02:04.653Z,5.70
2018-03-27T03:04:31.140Z,5.70
2018-03-27T03:06:57.595Z,5.80
2018-03-27T03:09:24.821Z,5.60
2018-03-27T03:11:51.991Z,5.60
2018-03-27T03:14:18.421Z,5.60
2018-03-27T03:16:45.606Z,5.60
2018-03-27T03:19:12.018Z,5.60
2018-03-27T03:21:38.428Z,5.40
2018-03-27T03:24:05.546Z,5.40
2018-03-27T03:26:32.056Z,5.30
2018-03-27T03:28:58.426Z,5.40
2018-03-27T03:31:24.811Z,5.30
2018-03-27T03:33:51.200Z,5.30
2018-03-27T03:36:18.320Z,5.20
2018-03-27T03:38:44.738Z,5.20
2018-03-27T03:41:11.169Z,5.20
2018-03-27T03:43:37.661Z,5.10
2018-03-27T03:46:04.057Z,5.10
2018-03-27T03:48:30.469Z,5.10
2018-03-27T03:50:56.905Z,5.00
2018-03-27T03:53:23.342Z,5.00
2018-03-27T03:55:49.708Z,4.90
2018-03-27T03:58:16.802Z,4.70
2018-03-27T04:00:43.234Z,4.70
2018-03-27T04:03:09.589Z,4.70
2018-03-27T04:05:36.085Z,4.80
2018-03-27T04:08:02.495Z,4.70
2018-03-27T04:10:28.921Z,4.70
2018-03-27T04:12:55.315Z,4.70
2018-03-27T04:15:21.791Z,4.60
2018-03-27T04:17:48.261Z,4.60
2018-03-27T04:20:14.691Z,4.60
2018-03-27T04:22:41.090Z,4.60
2018-03-27T04:25:07.488Z,4.60
2018-03-27T04:27:34.697Z,4.50
2018-03-27T04:30:01.186Z,4.50
2018-03-27T04:32:27.569Z,4.40
2018-03-27T04:34:53.961Z,4.40
2018-03-27T04:37:20.346Z,4.40
2018-03-27T04:39:46.741Z,4.40
2018-03-27T04:42:13.911Z,4.30
2018-03-27T04:44:41.272Z,4.30
2018-03-27T04:47:07.641Z,4.20
2018-03-27T04:49:34.052Z,4.30
2018-03-27T04:52:01.299Z,4.30
2018-03-27T04:54:27.699Z,4.30
2018-03-27T04:56:54.177Z,4.30
2018-03-27T04:59:21.281Z,4.30
2018-03-27T05:01:47.686Z,4.30
2018-03-27T05:04:14.829Z,4.30
2018-03-27T05:06:41.255Z,4.30
2018-03-27T05:09:07.726Z,4.30
2018-03-27T05:11:34.131Z,4.30
2018-03-27T05:14:01.547Z,4.30
2018-03-27T05:16:28.656Z,4.40
2018-03-27T05:18:55.046Z,4.40
2018-03-27T05:21:22.165Z,4.50
2018-03-27T05:23:48.589Z,4.40
2018-03-27T05:26:15.011Z,4.50
2018-03-27T05:28:41.380Z,4.50
2018-03-27T05:31:07.879Z,4.40
2018-03-27T05:33:34.277Z,4.40
2018-03-27T05:36:00.700Z,4.40
2018-03-27T05:38:27.094Z,4.40
2018-03-27T05:40:53.511Z,4.40
2018-03-27T05:43:19.925Z,4.40
2018-03-27T05:45:46.422Z,4.40
2018-03-27T05:48:12.800Z,4.40
2018-03-27T05:50:39.203Z,4.40
2018-03-27T05:53:05.640Z,4.50
2018-03-27T05:55:32.056Z,4.60
2018-03-27T05:57:58.450Z,4.60
2018-03-27T06:00:25.639Z,4.80
2018-03-27T06:02:52.023Z,4.80
2018-03-27T06:05:18.433Z,4.80
2018-03-27T06:07:44.828Z,4.80
2018-03-27T06:10:11.238Z,4.80
2018-03-27T06:12:37.642Z,4.90
2018-03-27T06:15:04.074Z,5.00
2018-03-27T06:17:30.494Z,5.00
2018-03-27T06:19:56.926Z,4.90
2018-03-27T06:22:23.334Z,5.00
2018-03-27T06:24:49.723Z,5.10
2018-03-27T06:27:16.196Z,5.10
2018-03-27T06:29:42.605Z,5.20
2018-03-27T06:32:09.807Z,5.30
2018-03-27T06:34:36.185Z,5.20
2018-03-27T06:37:02.612Z,5.30
2018-03-27T06:39:29.875Z,5.40
2018-03-27T06:41:56.296Z,5.40
2018-03-27T06:44:22.746Z,5.50
2018-03-27T06:46:49.152Z,5.50
2018-03-27T06:49:15.573Z,5.60
2018-03-27T06:51:42.713Z,5.50
2018-03-27T06:54:09.841Z,5.60
2018-03-27T06:56:36.267Z,5.60
2018-03-27T06:59:02.764Z,5.70
2018-03-27T07:01:29.923Z,5.80
2018-03-27T07:03:56.376Z,5.80
2018-03-27T07:06:22.858Z,6.00
2018-03-27T07:08:49.312Z,6.10
2018-03-27T07:11:15.725Z,6.30
2018-03-27T07:13:42.132Z,6.40
2018-03-27T07:16:09.460Z,6.60
2018-03-27T07:18:35.843Z,6.60
2018-03-27T07:21:02.240Z,6.50
2018-03-27T07:23:29.432Z,6.80
2018-03-27T07:25:55.786Z,6.80
2018-03-27T07:28:22.234Z,7.00
2018-03-27T07:30:48.625Z,7.20
2018-03-27T07:33:15.006Z,7.30
2018-03-27T07:35:41.407Z,7.30
2018-03-27T07:38:08.679Z,7.30
2018-03-27T07:40:35.135Z,7.30
2018-03-27T07:43:01.591Z,7.50
2018-03-27T07:45:28.053Z,7.50
2018-03-27T07:47:54.429Z,7.60
2018-03-27T07:50:21.547Z,7.60
2018-03-27T07:52:47.936Z,7.60
2018-03-27T07:55:14.309Z,7.60
2018-03-27T07:57:40.689Z,7.60
2018-03-27T08:00:07.072Z,7.60
2018-03-27T08:02:33.495Z,7.60
2018-03-27T08:04:59.906Z,7.70
2018-03-27T08:07:26.331Z,7.70
2018-03-27T08:09:52.705Z,7.80
2018-03-27T08:12:19.139Z,7.90
2018-03-27T08:14:45.539Z,8.00
2018-03-27T08:17:11.953Z,8.00
2018-03-27T08:19:38.342Z,8.10
2018-03-27T08:22:05.486Z,8.30
2018-03-27T08:24:31.890Z,8.40
2018-03-27T08:26:58.286Z,8.40
2018-03-27T08:29:24.710Z,8.50
2018-03-27T08:31:51.118Z,8.50
2018-03-27T08:34:18.257Z,8.80
2018-03-27T08:36:44.682Z,8.70
2018-03-27T08:39:11.361Z,8.80
2018-03-27T08:41:37.806Z,8.90
2018-03-27T08:44:04.226Z,9.00
2018-03-27T08:46:30.669Z,9.00
2018-03-27T08:48:57.135Z,9.10
2018-03-27T08:51:23.512Z,9.10
2018-03-27T08:53:49.968Z,9.00
2018-03-27T08:56:16.391Z,9.10
2018-03-27T08:58:42.820Z,9.20
2018-03-27T09:01:09.433Z,9.40
2018-03-27T09:03:35.838Z,9.50
2018-03-27T09:06:02.306Z,9.40
2018-03-27T09:08:28.762Z,9.40
2018-03-27T09:10:55.235Z,9.20
2018-03-27T09:13:21.639Z,9.30
2018-03-27T09:15:48.790Z,9.60
2018-03-27T09:18:15.226Z,9.60
2018-03-27T09:20:41.677Z,9.60
2018-03-27T09:23:08.125Z,9.60
2018-03-27T09:25:35.237Z,9.60
2018-03-27T09:28:01.681Z,9.60
2018-03-27T09:30:28.066Z,9.70
2018-03-27T09:32:54.474Z,9.60
2018-03-27T09:35:21.643Z,9.80
2018-03-27T09:37:48.065Z,9.80
2018-03-27T09:40:14.488Z,9.80
2018-03-27T09:42:41.600Z,9.90
2018-03-27T09:45:08.017Z,9.80
2018-03-27T09:47:34.417Z,9.90
2018-03-27T09:50:00.834Z,9.90
2018-03-27T09:52:27.322Z,10.00
2018-03-27T09:54:53.720Z,10.20
2018-03-27T09:57:20.272Z,10.40
2018-03-27T09:59:46.678Z,10.40
2018-03-27T10:02:13.073Z,10.10
2018-03-27T10:04:40.245Z,10.10
2018-03-27T10:07:06.660Z,10.10
2018-03-27T10:09:33.825Z,10.50
2018-03-27T10:12:00.202Z,10.50
2018-03-27T10:14:26.599Z,10.60
2018-03-27T10:16:53.040Z,10.40
2018-03-27T10:19:19.441Z,10.60
2018-03-27T10:21:46.667Z,11.00
2018-03-27T10:24:13.071Z,11.00
2018-03-27T10:26:39.475Z,11.00
2018-03-27T10:29:05.850Z,11.00
2018-03-27T10:31:32.278Z,11.10
2018-03-27T10:33:58.716Z,11.20
2018-03-27T10:36:25.158Z,11.00
2018-03-27T10:38:52.387Z,11.00
2018-03-27T10:41:18.801Z,10.90
2018-03-27T10:43:45.262Z,11.00
2018-03-27T10:46:11.677Z,11.00
2018-03-27T10:48:38.110Z,11.00
2018-03-27T10:51:04.484Z,11.10
2018-03-27T10:53:30.939Z,11.00
2018-03-27T10:55:57.374Z,11.10
2018-03-27T10:58:23.784Z,11.10
2018-03-27T11:00:50.178Z,11.00
2018-03-27T11:03:16.594Z,10.90
2018-03-27T11:05:42.963Z,10.80
2018-03-27T11:08:10.063Z,10.70
2018-03-27T11:10:36.471Z,10.70
2018-03-27T11:13:02.912Z,10.70
2018-03-27T11:15:29.629Z,10.70
2018-03-27T11:17:56.008Z,10.80
2018-03-27T11:20:22.413Z,10.90
2018-03-27T11:22:48.847Z,10.90
2018-03-27T11:25:15.427Z,10.80
2018-03-27T11:27:42.576Z,11.00
2018-03-27T11:30:08.954Z,11.00
2018-03-27T11:32:35.371Z,11.00
2018-03-27T11:35:01.775Z,10.80
2018-03-27T11:37:28.905Z,11.00
2018-03-27T11:39:55.369Z,11.00
2018-03-27T11:42:21.825Z,10.70
2018-03-27T11:44:48.194Z,10.30
2018-03-27T11:47:15.475Z,10.40
2018-03-27T11:49:41.881Z,10.40
2018-03-27T11:52:08.308Z,10.60
2018-03-27T11:54:34.756Z,10.70
2018-03-27T11:57:01.361Z,10.60
2018-03-27T11:59:27.766Z,10.70
2018-03-27T12:01:54.146Z,10.80
2018-03-27T12:04:21.383Z,11.00
2018-03-27T12:06:48.529Z,10.90
2018-03-27T12:09:14.969Z,10.80
2018-03-27T12:11:41.362Z,11.00
2018-03-27T12:14:07.786Z,10.80
2018-03-27T12:16:34.226Z,10.90
2018-03-27T12:19:00.615Z,11.00
2018-03-27T12:21:27.756Z,11.30
2018-03-27T12:23:54.983Z,11.40
2018-03-27T12:26:21.358Z,11.40
2018-03-27T12:28:47.732Z,11.30
2018-03-27T12:31:14.906Z,11.50
2018-03-27T12:33:41.306Z,11.50
2018-03-27T12:36:07.806Z,11.50
2018-03-27T12:38:34.295Z,11.40
2018-03-27T12:41:00.680Z,11.70
2018-03-27T12:43:27.066Z,11.70
2018-03-27T12:45:53.494Z,11.90
2018-03-27T12:48:19.898Z,12.00
2018-03-27T12:50:46.309Z,12.10
2018-03-27T12:53:12.815Z,12.10
2018-03-27T12:55:39.187Z,12.20
2018-03-27T12:58:05.607Z,12.00
2018-03-27T13:00:31.989Z,12.00
2018-03-27T13:02:59.154Z,12.10
2018-03-27T13:05:26.260Z,12.20
2018-03-27T13:07:52.670Z,12.20
2018-03-27T13:10:19.099Z,12.40
2018-03-27T13:12:45.593Z,12.40
2018-03-27T13:15:12.758Z,12.40
2018-03-27T13:17:39.211Z,12.40
2018-03-27T13:20:06.386Z,11.90
2018-03-27T13:22:32.786Z,11.90
2018-03-27T13:24:59.222Z,12.00
2018-03-27T13:27:25.637Z,12.20
2018-03-27T13:29:52.038Z,12.20
2018-03-27T13:32:18.437Z,12.20
2018-03-27T13:34:44.850Z,12.20
2018-03-27T13:37:11.298Z,12.00
2018-03-27T13:39:37.740Z,12.10
2018-03-27T13:42:04.197Z,12.00
2018-03-27T13:44:30.735Z,12.20
2018-03-27T13:46:57.899Z,12.20
2018-03-27T13:49:24.341Z,12.20
2018-03-27T13:51:50.785Z,12.10
2018-03-27T13:54:17.198Z,12.00
2018-03-27T13:56:43.615Z,12.00
2018-03-27T13:59:10.816Z,12.00
2018-03-27T14:01:37.998Z,12.10
2018-03-27T14:04:04.421Z,12.10
2018-03-27T14:06:30.814Z,12.20
2018-03-27T14:08:57.313Z,12.00
2018-03-27T14:11:24.491Z,12.10
2018-03-27T14:13:50.914Z,12.10
2018-03-27T14:16:17.335Z,12.30
2018-03-27T14:18:43.770Z,12.50
2018-03-27T14:21:10.216Z,12.50
2018-03-27T14:23:36.912Z,12.50
2018-03-27T14:26:03.355Z,12.70
2018-03-27T14:28:30.517Z,13.00
2018-03-27T14:30:56.959Z,13.00
2018-03-27T14:33:23.392Z,13.20
2018-03-27T14:35:49.807Z,12.90
2018-03-27T14:38:17.044Z,13.10
2018-03-27T14:40:43.531Z,13.00
2018-03-27T14:43:10.062Z,13.10
2018-03-27T14:45:36.526Z,12.90
2018-03-27T14:48:02.945Z,12.60
2018-03-27T14:50:29.426Z,12.50
2018-03-27T14:52:55.867Z,12.60
2018-03-27T14:55:22.318Z,12.50
2018-03-27T14:57:48.770Z,12.50
2018-03-27T15:00:15.919Z,12.60
2018-03-27T15:02:42.370Z,12.60
2018-03-27T15:05:09.526Z,12.60
2018-03-27T15:07:35.975Z,12.60
2018-03-27T15:10:02.480Z,12.60
2018-03-27T15:12:28.835Z,12.70
2018-03-27T15:14:56.027Z,12.50
2018-03-27T15:17:22.522Z,12.50
2018-03-27T15:19:49.670Z,12.50
2018-03-27T15:22:16.859Z,12.50
2018-03-27T15:24:44.047Z,12.50
2018-03-27T15:27:10.427Z,12.40
2018-03-27T15:29:36.881Z,12.50
2018-03-27T15:32:03.338Z,12.60
2018-03-27T15:34:30.522Z,12.80
2018-03-27T15:36:57.042Z,12.80
2018-03-27T15:39:24.212Z,12.60
2018-03-27T15:41:50.689Z,12.60
2018-03-27T15:44:17.052Z,12.70
2018-03-27T15:46:44.190Z,12.70
2018-03-27T15:49:11.353Z,12.80
2018-03-27T15:51:38.532Z,12.80
2018-03-27T15:54:04.954Z,12.80
2018-03-27T15:56:31.415Z,12.70
2018-03-27T15:58:57.823Z,12.70
2018-03-27T16:01:24.256Z,12.70
2018-03-27T16:03:50.646Z,12.60
2018-03-27T16:06:17.088Z,12.50
2018-03-27T16:08:44.318Z,12.50
2018-03-27T16:11:11.493Z,12.40
2018-03-27T16:13:38.677Z,12.50
2018-03-27T16:16:05.135Z,12.50
2018-03-27T16:18:31.568Z,12.50
2018-03-27T16:20:58.036Z,12.40
2018-03-27T16:23:24.472Z,12.20
2018-03-27T16:25:51.627Z,12.10
2018-03-27T16:28:18.047Z,12.10
2018-03-27T16:30:44.513Z,12.10
2018-03-27T16:33:10.999Z,12.10
2018-03-27T16:35:38.172Z,12.00
2018-03-27T16:38:04.607Z,12.00
2018-03-27T16:40:31.098Z,11.90
2018-03-27T16:42:57.519Z,11.90
2018-03-27T16:45:23.882Z,11.90
2018-03-27T16:47:51.232Z,11.80
2018-03-27T16:50:17.687Z,11.80
2018-03-27T16:52:44.067Z,11.70
2018-03-27T16:55:10.547Z,11.80
2018-03-27T16:57:37.660Z,11.60
2018-03-27T17:00:04.284Z,11.50
2018-03-27T17:02:30.687Z,11.50
2018-03-27T17:04:57.138Z,11.50
2018-03-27T17:07:23.562Z,11.60
2018-03-27T17:09:50.006Z,11.40
2018-03-27T17:12:16.470Z,11.20
2018-03-27T17:14:43.659Z,11.30
2018-03-27T17:17:10.162Z,11.30
2018-03-27T17:19:36.601Z,11.40
2018-03-27T17:22:03.077Z,11.40
2018-03-27T17:24:29.457Z,11.40
2018-03-27T17:26:55.883Z,11.40
2018-03-27T17:29:23.082Z,11.30
2018-03-27T17:31:49.528Z,11.30
2018-03-27T17:34:15.958Z,11.30
2018-03-27T17:36:42.367Z,11.20
2018-03-27T17:39:08.871Z,11.20
2018-03-27T17:41:35.507Z,11.20
2018-03-27T17:44:01.912Z,11.10
2018-03-27T17:46:28.346Z,11.00
2018-03-27T17:48:54.883Z,10.90
2018-03-27T17:51:22.098Z,10.60
2018-03-27T17:53:48.504Z,10.60
2018-03-27T17:56:14.975Z,10.60
2018-03-27T17:58:42.272Z,10.60
2018-03-27T18:01:08.732Z,10.60
2018-03-27T18:03:35.169Z,10.60
2018-03-27T18:06:01.684Z,10.60
2018-03-27T18:08:28.118Z,10.60
2018-03-27T18:10:54.519Z,10.60
2018-03-27T18:13:21.667Z,10.60
2018-03-27T18:15:48.823Z,10.10
2018-03-27T18:18:16.020Z,9.80
2018-03-27T18:20:42.468Z,9.80
2018-03-27T18:23:08.915Z,9.70
2018-03-27T18:25:35.334Z,9.60
2018-03-27T18:28:01.812Z,9.70
2018-03-27T18:30:28.286Z,9.70
2018-03-27T18:32:54.789Z,9.60
2018-03-27T18:35:21.256Z,9.60
2018-03-27T18:37:47.677Z,9.60
2018-03-27T18:40:14.162Z,9.60
2018-03-27T18:42:40.595Z,9.40
2018-03-27T18:45:07.263Z,9.40
2018-03-27T18:47:33.868Z,9.40
2018-03-27T18:50:00.487Z,9.40
2018-03-27T18:52:27.010Z,9.50
2018-03-27T18:54:53.737Z,9.30
2018-03-27T18:57:20.208Z,9.30
2018-03-27T18:59:46.706Z,9.40
2018-03-27T19:02:13.176Z,9.40
2018-03-27T19:04:39.694Z,9.50
2018-03-27T19:07:07.449Z,9.50
2018-03-27T19:09:34.651Z,9.50
2018-03-27T19:12:01.167Z,9.40
2018-03-27T19:14:27.744Z,9.30
2018-03-27T19:16:54.209Z,9.30
2018-03-27T19:19:21.466Z,9.40
2018-03-27T19:21:48.756Z,9.30
2018-03-27T19:24:15.266Z,9.30
2018-03-27T19:26:41.760Z,9.30
2018-03-27T19:29:08.237Z,9.30
2018-03-27T19:31:34.691Z,9.30
2018-03-27T19:34:01.211Z,9.30
2018-03-27T19:36:27.718Z,9.20
2018-03-27T19:38:54.177Z,9.20
2018-03-27T19:41:20.712Z,9.30
2018-03-27T19:43:47.277Z,9.30
2018-03-27T19:46:13.725Z,9.40
2018-03-27T19:48:41.108Z,9.30
2018-03-27T19:51:07.608Z,9.40
2018-03-27T19:53:34.088Z,9.30
2018-03-27T19:56:00.524Z,9.50
2018-03-27T19:58:26.953Z,9.50
2018-03-27T20:00:53.458Z,9.40
2018-03-27T20:03:20.731Z,9.30
2018-03-27T20:05:47.267Z,9.30
2018-03-27T20:08:13.886Z,9.20
2018-03-27T20:10:40.450Z,9.10
2018-03-27T20:13:06.981Z,9.10
2018-03-27T20:15:41.704Z,9.10
2018-03-27T20:18:00.085Z,9.00
2018-03-27T20:20:26.580Z,9.00
2018-03-27T20:22:53.036Z,9.10
2018-03-27T20:25:19.493Z,9.00
2018-03-27T20:27:46.732Z,9.00
2018-03-27T20:30:13.223Z,9.00
2018-03-27T20:32:39.710Z,9.10
2018-03-27T20:35:06.238Z,9.10
2018-03-27T20:37:32.754Z,9.00
2018-03-27T20:39:59.165Z,9.10
2018-03-27T20:42:25.641Z,9.00
2018-03-27T20:44:52.149Z,9.10
2018-03-27T20:47:18.976Z,8.90
2018-03-27T20:49:45.509Z,8.80
2018-03-27T20:52:12.065Z,8.90
2018-03-27T20:54:38.589Z,8.80
2018-03-27T20:57:05.063Z,8.80
2018-03-27T20:59:32.272Z,8.70
2018-03-27T21:01:58.802Z,8.70
2018-03-27T21:04:25.338Z,8.70
2018-03-27T21:06:51.785Z,8.80
2018-03-27T21:09:18.257Z,8.70
2018-03-27T21:11:45.465Z,8.70
2018-03-27T21:14:11.961Z,8.70
2018-03-27T21:16:38.503Z,8.70
2018-03-27T21:19:05.038Z,8.60
2018-03-27T21:21:31.539Z,8.60
2018-03-27T21:23:58.022Z,8.60
2018-03-27T21:26:24.480Z,8.60
2018-03-27T21:28:51.040Z,8.60
2018-03-27T21:31:18.369Z,8.70
2018-03-27T21:33:44.862Z,8.70
2018-03-27T21:36:11.438Z,8.60
2018-03-27T21:38:38.065Z,8.70
2018-03-27T21:41:05.330Z,8.60
2018-03-27T21:43:31.912Z,8.60
2018-03-27T21:45:58.531Z,8.60
2018-03-27T21:48:25.001Z,8.50
2018-03-27T21:50:51.516Z,8.40
2018-03-27T21:53:18.405Z,8.20
2018-03-27T21:55:44.942Z,8.10
2018-03-27T21:58:11.584Z,8.10
2018-03-27T22:00:38.073Z,8.00
2018-03-27T22:03:04.615Z,8.10
2018-03-27T22:05:31.130Z,8.10
2018-03-27T22:07:58.643Z,8.10
2018-03-27T22:10:25.884Z,8.10
2018-03-27T22:12:52.349Z,8.10
2018-03-27T22:15:18.884Z,8.10
2018-03-27T22:17:45.368Z,8.10
2018-03-27T22:20:11.991Z,8.10
2018-03-27T22:22:38.590Z,8.10
2018-03-27T22:25:05.407Z,8.20
2018-03-27T22:27:31.859Z,8.10
2018-03-27T22:29:58.488Z,8.10
2018-03-27T22:32:25.090Z,8.10
2018-03-27T22:34:51.552Z,8.10
2018-03-27T22:37:18.224Z,8.00
2018-03-27T22:39:44.717Z,8.10
2018-03-27T22:42:12.144Z,8.00
2018-03-27T22:44:38.613Z,8.00
2018-03-27T22:47:05.158Z,8.00
2018-03-27T22:49:31.613Z,8.00
2018-03-27T22:51:58.131Z,8.10
2018-03-27T22:54:25.519Z,8.10
2018-03-27T22:56:52.791Z,8.00
2018-03-27T22:59:20.083Z,8.00
2018-03-27T23:01:46.557Z,8.00
2018-03-27T23:04:13.780Z,8.10
2018-03-27T23:06:40.300Z,8.10
2018-03-27T23:09:06.869Z,8.20
2018-03-27T23:11:33.410Z,8.30
2018-03-27T23:13:59.900Z,8.20
2018-03-27T23:16:26.422Z,8.10
2018-03-27T23:18:52.919Z,8.00
2018-03-27T23:21:19.443Z,8.00
2018-03-27T23:23:45.857Z,8.00
2018-03-27T23:26:12.280Z,8.00
2018-03-27T23:28:38.723Z,8.00
2018-03-27T23:31:05.178Z,8.00
2018-03-27T23:33:31.681Z,8.00
2018-03-27T23:35:58.116Z,7.90
2018-03-27T23:38:24.551Z,7.90
2018-03-27T23:40:51.056Z,7.80
2018-03-27T23:43:18.260Z,7.80
2018-03-27T23:45:44.702Z,7.80
2018-03-27T23:48:11.097Z,7.90
2018-03-27T23:50:37.490Z,7.80
2018-03-27T23:53:04.682Z,7.80
2018-03-27T23:55:31.169Z,7.80
2018-03-27T23:57:57.596Z,7.80
